createdAt,value
2023-04-03T04:40:03.530Z,3.05
2023-04-03T04:55:06.533Z,3.00
2023-04-03T05:10:11.036Z,3.10
2023-04-03T05:25:13.906Z,3.17
2023-04-03T05:40:19.748Z,2.95
2023-04-03T05:55:24.805Z,3.50
2023-04-03T06:10:27.404Z,4.90
2023-04-03T06:25:29.651Z,4.50
2023-04-03T06:40:31.908Z,4.20
2023-04-03T06:55:34.668Z,4.65
2023-04-03T07:10:37.155Z,4.10
2023-04-03T07:25:47.135Z,4.43
2023-04-03T07:40:49.650Z,4.22
2023-04-03T07:55:56.541Z,4.32
2023-04-03T08:10:59.288Z,3.92
2023-04-03T08:26:08.001Z,3.63
2023-04-03T08:41:34.261Z,3.88
2023-04-03T08:56:36.495Z,3.92
2023-04-03T09:12:10.296Z,3.83
2023-04-03T09:27:13.279Z,3.60
2023-04-03T09:42:21.646Z,4.20
2023-04-03T09:57:23.779Z,3.80
2023-04-03T10:12:26.019Z,3.50
2023-04-03T10:27:50.488Z,3.40
2023-04-03T10:42:52.694Z,3.45
2023-04-03T10:57:56.240Z,3.40
2023-04-03T11:13:03.958Z,3.20
2023-04-03T11:28:08.169Z,3.13
2023-04-03T11:43:24.151Z,3.40
2023-04-03T11:58:28.609Z,3.25
2023-04-03T12:13:30.868Z,3.20
2023-04-03T12:28:38.596Z,3.13
2023-04-03T12:44:19.103Z,3.05
2023-04-03T12:59:26.282Z,3.20
2023-04-03T13:14:29.770Z,3.03
2023-04-03T13:29:43.125Z,3.00
2023-04-03T13:44:45.392Z,2.80
2023-04-03T13:59:47.894Z,2.95
2023-04-03T14:14:50.153Z,3.10
2023-04-03T14:29:54.545Z,2.90
2023-04-03T14:44:56.699Z,3.20
2023-04-03T14:59:58.885Z,2.90
2023-04-03T15:15:03.015Z,2.80
2023-04-03T15:30:06.977Z,2.83
2023-04-03T15:45:09.749Z,2.90
2023-04-03T16:00:12.548Z,3.20
2023-04-03T16:15:14.741Z,3.70
2023-04-03T16:30:34.501Z,3.40
2023-04-03T16:45:39.141Z,3.40
2023-04-03T17:00:42.893Z,3.30
2023-04-03T17:15:45.070Z,3.20
2023-04-03T17:30:47.241Z,3.10
2023-04-03T17:45:49.482Z,3.08
2023-04-03T18:00:52.214Z,3.00
2023-04-03T18:15:54.511Z,3.00
2023-04-03T18:30:58.732Z,2.90
2023-04-03T18:46:01.024Z,2.60
2023-04-03T19:01:05.738Z,3.00
2023-04-03T19:16:08.498Z,2.83
2023-04-03T19:31:23.937Z,3.10
2023-04-03T19:46:27.206Z,3.00
2023-04-03T20:01:31.035Z,3.00
2023-04-03T20:16:33.285Z,2.90
2023-04-03T20:31:35.589Z,2.88
2023-04-03T20:46:51.454Z,3.00
